Time;durP1;ratioP1;P1;durP2;ratioP2;P2;SDS_P1;SDS_P2;PMS_P1;PMS_P2;Temp;Humidity;BMP_temperature;BMP_pressure;BME280_temperature;BME280_humidity;BME280_pressure;Samples;Min_cycle;Max_cycle;Signal;HPM_P1;HPM_P2
2021/12/29 00:00:48;;;;;;;;;;;;;;;13.32;64.39;99080.97;4960093;28;6792;-73
2021/12/29 00:03:15;;;;;;;;;;;;;;;13.31;64.86;99090.41;4958081;28;6910;-73
2021/12/29 00:05:41;;;;;;;;;;;;;;;13.32;64.91;99099.88;4960638;28;6887;-73
2021/12/29 00:08:07;;;;;;;;;;;;;;;13.32;64.75;99106.69;4959195;28;7172;-73
2021/12/29 00:10:33;;;;;;;;;;;;;;;13.32;64.38;99112.72;4958017;28;8098;-73
2021/12/29 00:13:00;;;;;;;;;;;;;;;13.32;64.02;99112.72;4945437;28;6872;-73
2021/12/29 00:15:27;;;;;;;;;;;;;;;13.30;64.86;99116.13;4958638;28;7135;-73
2021/12/29 00:17:56;;;;;;;;;;;;;;;13.31;63.88;99125.56;4956209;28;7026;-73
2021/12/29 00:20:29;;;;;;;;;;;;;;;13.30;64.83;99123.84;4962108;28;6812;-73
2021/12/29 00:23:02;;;;;;;;;;;;;;;13.29;64.87;99122.97;4960645;28;7244;-73
2021/12/29 00:25:28;;;;;;;;;;;;;;;13.28;64.11;99116.09;4975123;28;7051;-73
2021/12/29 00:27:55;;;;;;;;;;;;;;;13.29;65.10;99116.97;4960166;28;6816;-73
2021/12/29 00:30:22;;;;;;;;;;;;;;;13.30;64.78;99131.56;4961539;28;8017;-73
2021/12/29 00:32:49;;;;;;;;;;;;;;;13.29;65.18;99135.84;4957622;28;8303;-73
2021/12/29 00:35:15;;;;;;;;;;;;;;;13.29;64.07;99143.56;4944366;28;7262;-73
2021/12/29 00:37:42;;;;;;;;;;;;;;;13.29;64.17;99160.69;4944019;28;6999;-73
2021/12/29 00:40:11;;;;;;;;;;;;;;;13.28;64.33;99161.53;4957185;28;7314;-73
2021/12/29 00:42:38;;;;;;;;;;;;;;;13.28;64.91;99166.69;4961585;28;6824;-73
2021/12/29 00:45:06;;;;;;;;;;;;;;;13.28;64.91;99176.97;4957797;28;7145;-73
2021/12/29 00:47:34;;;;;;;;;;;;;;;13.30;64.35;99177.88;4960005;28;7087;-72
2021/12/29 00:50:01;;;;;;;;;;;;;;;13.29;64.50;99179.59;4972350;28;7881;-73
2021/12/29 00:52:27;;;;;;;;;;;;;;;13.29;64.35;99171.00;4956771;28;7514;-72
2021/12/29 00:54:53;;;;;;;;;;;;;;;13.29;64.18;99178.72;4955964;28;7300;-72
2021/12/29 00:57:18;;;;;;;;;;;;;;;13.29;65.12;99187.31;4957271;28;6784;-72
2021/12/29 00:59:45;;;;;;;;;;;;;;;13.28;64.49;99195.88;4959872;28;6933;-72
2021/12/29 01:02:11;;;;;;;;;;;;;;;13.27;64.26;99191.53;4957844;28;6967;-72
2021/12/29 01:04:38;;;;;;;;;;;;;;;13.27;65.26;99188.13;4959611;28;6816;-73
2021/12/29 01:07:05;;;;;;;;;;;;;;;13.26;64.13;99199.25;4972715;28;7190;-73
2021/12/29 01:09:31;;;;;;;;;;;;;;;13.26;64.23;99206.97;4959155;28;6812;-73
2021/12/29 01:11:58;;;;;;;;;;;;;;;13.24;64.53;99209.50;4958614;28;6784;-73
2021/12/29 01:14:26;;;;;;;;;;;;;;;13.24;64.86;99212.06;4960924;28;6967;-73
2021/12/29 01:16:52;;;;;;;;;;;;;;;13.24;64.82;99224.94;4959237;28;7163;-72
2021/12/29 01:19:24;;;;;;;;;;;;;;;13.23;64.35;99235.19;4957461;28;7003;-72
2021/12/29 01:21:55;;;;;;;;;;;;;;;13.22;64.98;99225.75;4959111;28;7102;-73
2021/12/29 01:24:22;;;;;;;;;;;;;;;13.22;64.09;99228.31;4959893;28;7035;-73
2021/12/29 01:26:50;;;;;;;;;;;;;;;13.20;64.53;99243.75;4955701;28;6816;-73
2021/12/29 01:29:15;;;;;;;;;;;;;;;13.19;64.37;99244.59;4956640;28;6812;-73
2021/12/29 01:31:43;;;;;;;;;;;;;;;13.18;64.85;99246.28;4958278;28;6999;-73
2021/12/29 01:34:09;;;;;;;;;;;;;;;13.17;65.11;99253.97;4940315;28;7043;-73
2021/12/29 01:36:37;;;;;;;;;;;;;;;13.15;65.31;99251.38;4957566;28;10079;-73
2021/12/29 01:39:11;;;;;;;;;;;;;;;13.17;64.73;99252.28;4958250;28;7397;-73
2021/12/29 01:41:37;;;;;;;;;;;;;;;13.17;64.59;99277.13;4942155;28;6855;-72
2021/12/29 01:44:04;;;;;;;;;;;;;;;13.15;64.97;99284.81;4974238;28;6810;-73
2021/12/29 01:46:30;;;;;;;;;;;;;;;13.15;64.67;99277.09;4955260;28;7019;-73
2021/12/29 01:48:56;;;;;;;;;;;;;;;13.15;64.22;99289.97;4942238;28;6792;-73
2021/12/29 01:51:22;;;;;;;;;;;;;;;13.16;64.51;99294.28;4961941;28;6814;-73
2021/12/29 01:54:02;;;;;;;;;;;;;;;13.14;63.85;99308.81;4958764;28;7034;-73
2021/12/29 01:56:32;;;;;;;;;;;;;;;13.14;64.62;99311.38;4956408;28;7043;-73
2021/12/29 01:58:58;;;;;;;;;;;;;;;13.14;64.24;99308.81;4958882;28;7326;-73
2021/12/29 02:01:24;;;;;;;;;;;;;;;13.14;64.07;99311.38;4955299;28;7230;-73
2021/12/29 02:03:52;;;;;;;;;;;;;;;13.14;63.93;99308.81;4957237;28;6899;-73
2021/12/29 02:06:18;;;;;;;;;;;;;;;13.14;64.77;99328.53;4958465;28;7081;-73
2021/12/29 02:08:44;;;;;;;;;;;;;;;13.13;64.29;99332.78;4973860;28;6896;-72
2021/12/29 02:11:10;;;;;;;;;;;;;;;13.14;63.91;99344.84;4957407;28;6964;-72
2021/12/29 02:13:36;;;;;;;;;;;;;;;13.12;64.26;99338.75;4958034;28;6799;-73
2021/12/29 02:16:04;;;;;;;;;;;;;;;13.11;64.31;99352.47;4957092;28;6787;-73
2021/12/29 02:18:31;;;;;;;;;;;;;;;13.10;63.92;99355.88;4958361;28;7107;-73
2021/12/29 02:20:56;;;;;;;;;;;;;;;13.09;64.54;99350.72;4959525;28;7022;-73
2021/12/29 02:23:46;;;;;;;;;;;;;;;13.07;64.85;99358.41;4957835;28;7185;-73
2021/12/29 02:26:14;;;;;;;;;;;;;;;13.06;65.07;99361.81;4944366;28;6824;-72
2021/12/29 02:28:43;;;;;;;;;;;;;;;13.04;64.12;99358.34;4956472;28;7023;-72
2021/12/29 02:31:09;;;;;;;;;;;;;;;13.04;64.12;99360.91;4957091;28;6816;-72
2021/12/29 02:33:35;;;;;;;;;;;;;;;13.03;64.26;99366.88;4956012;28;6808;-73
2021/12/29 02:36:04;;;;;;;;;;;;;;;13.01;65.01;99368.53;4956846;28;6969;-73
2021/12/29 02:38:35;;;;;;;;;;;;;;;13.01;64.15;99376.25;4957944;28;7157;-73
2021/12/29 02:41:06;;;;;;;;;;;;;;;13.02;64.75;99367.72;4924133;28;8494;-73
2021/12/29 02:43:37;;;;;;;;;;;;;;;13.00;65.05;99372.84;4958122;28;6854;-73
2021/12/29 02:46:11;;;;;;;;;;;;;;;12.99;64.49;99376.25;4954387;28;6827;-73
2021/12/29 02:48:40;;;;;;;;;;;;;;;12.99;64.55;99378.81;4954959;28;6903;-73
2021/12/29 02:51:08;;;;;;;;;;;;;;;12.97;63.99;99362.47;4940894;28;6836;-73
2021/12/29 02:53:36;;;;;;;;;;;;;;;12.97;64.82;99367.59;4953908;28;6823;-73
2021/12/29 02:56:04;;;;;;;;;;;;;;;12.97;64.10;99369.31;4954272;28;7276;-73
2021/12/29 02:58:31;;;;;;;;;;;;;;;12.94;64.45;99372.69;4950017;28;6912;-73
2021/12/29 03:01:03;;;;;;;;;;;;;;;12.92;64.73;99385.50;4955729;28;7238;-73
2021/12/29 03:03:30;;;;;;;;;;;;;;;12.91;64.79;99383.78;4962097;28;7189;-73
2021/12/29 03:05:57;;;;;;;;;;;;;;;12.90;63.97;99397.47;4944395;28;6982;-73
2021/12/29 03:08:24;;;;;;;;;;;;;;;12.90;64.63;99394.91;4959394;28;7277;-73
2021/12/29 03:10:53;;;;;;;;;;;;;;;12.89;64.37;99388.03;4959780;28;7239;-73
2021/12/29 03:13:29;;;;;;;;;;;;;;;12.89;64.27;99406.03;4960670;28;6873;-73
2021/12/29 03:15:56;;;;;;;;;;;;;;;12.89;63.92;99408.59;4976976;28;7227;-73
2021/12/29 03:18:22;;;;;;;;;;;;;;;12.90;64.64;99400.03;4963085;28;7140;-73
2021/12/29 03:20:50;;;;;;;;;;;;;;;12.90;64.50;99410.34;4968018;28;6828;-73
2021/12/29 03:23:16;;;;;;;;;;;;;;;12.91;64.46;99409.50;4962243;28;6808;-73
2021/12/29 03:25:44;;;;;;;;;;;;;;;12.91;64.70;99406.91;4964574;28;6812;-73
2021/12/29 03:28:09;;;;;;;;;;;;;;;12.91;64.81;99409.50;4963511;28;8321;-73
2021/12/29 03:30:43;;;;;;;;;;;;;;;12.91;63.72;99406.91;4964707;28;7265;-72
2021/12/29 03:33:09;;;;;;;;;;;;;;;12.90;64.32;99412.91;4966468;28;7031;-73
2021/12/29 03:35:43;;;;;;;;;;;;;;;12.91;64.53;99421.50;4947994;28;7145;-72
2021/12/29 03:38:15;;;;;;;;;;;;;;;12.90;64.35;99423.19;4961932;28;6896;-72
2021/12/29 03:40:41;;;;;;;;;;;;;;;12.90;64.67;99436.03;4963696;28;6811;-72
2021/12/29 03:43:10;;;;;;;;;;;;;;;12.89;63.83;99426.59;4964683;28;6827;-72
2021/12/29 03:45:38;;;;;;;;;;;;;;;12.88;64.52;99435.16;4962966;28;6873;-72
2021/12/29 03:48:06;;;;;;;;;;;;;;;12.88;64.08;99432.59;4948528;28;6800;-73
2021/12/29 03:50:31;;;;;;;;;;;;;;;12.87;63.89;99438.56;4961723;28;6807;-73
2021/12/29 03:52:57;;;;;;;;;;;;;;;12.86;64.66;99441.97;4967880;28;7096;-73
2021/12/29 03:55:23;;;;;;;;;;;;;;;12.86;63.67;99446.22;4960897;28;7170;-73
2021/12/29 03:57:49;;;;;;;;;;;;;;;12.84;64.09;99456.47;4963541;28;6879;-73
2021/12/29 04:00:20;;;;;;;;;;;;;;;12.85;63.88;99459.91;4964894;28;6936;-73
2021/12/29 04:02:47;;;;;;;;;;;;;;;12.84;64.68;99461.59;4961292;28;7294;-72
2021/12/29 04:05:19;;;;;;;;;;;;;;;12.86;63.78;99462.53;4962391;28;6895;-72
2021/12/29 04:07:46;;;;;;;;;;;;;;;12.86;64.42;99472.81;4961484;28;6812;-72
2021/12/29 04:10:13;;;;;;;;;;;;;;;12.86;64.65;99483.13;4959430;28;6820;-73
2021/12/29 04:12:40;;;;;;;;;;;;;;;12.86;64.34;99470.25;4961370;28;6800;-72
2021/12/29 04:15:10;;;;;;;;;;;;;;;12.87;64.07;99482.28;4959969;28;6887;-72
2021/12/29 04:17:38;;;;;;;;;;;;;;;12.87;64.41;99478.81;4958818;28;6885;-72
2021/12/29 04:23:06;;;;;;;;;;;;;;;12.87;63.79;99489.09;4960715;28;6899;-72
2021/12/29 04:25:35;;;;;;;;;;;;;;;12.87;63.80;99495.13;4943967;28;6977;-72
2021/12/29 04:28:04;;;;;;;;;;;;;;;12.88;64.53;99489.16;4960844;28;7178;-72
2021/12/29 04:30:31;;;;;;;;;;;;;;;12.89;63.61;99493.47;4955259;28;10455;-72
2021/12/29 04:32:56;;;;;;;;;;;;;;;12.89;64.47;99496.03;4958626;28;6981;-72
2021/12/29 04:35:23;;;;;;;;;;;;;;;12.89;63.92;99498.59;4959796;28;6784;-72
2021/12/29 04:37:51;;;;;;;;;;;;;;;12.89;64.70;99503.75;4961908;28;7195;-72
2021/12/29 04:40:18;;;;;;;;;;;;;;;12.89;63.91;99506.31;4936209;28;7043;-72
2021/12/29 04:42:44;;;;;;;;;;;;;;;12.89;63.47;99510.59;4960703;28;7166;-72
2021/12/29 04:45:11;;;;;;;;;;;;;;;12.89;63.58;99513.16;4958640;28;6986;-72
2021/12/29 04:47:42;;;;;;;;;;;;;;;12.91;63.42;99517.50;4960673;28;7230;-72
2021/12/29 04:50:23;;;;;;;;;;;;;;;12.90;63.47;99515.78;4958380;28;6824;-73
2021/12/29 04:52:50;;;;;;;;;;;;;;;12.91;64.14;99520.09;4955833;28;7112;-72
2021/12/29 04:55:16;;;;;;;;;;;;;;;12.92;63.67;99526.97;4960523;28;7446;-72
2021/12/29 04:57:42;;;;;;;;;;;;;;;12.94;63.77;99532.16;4957850;28;7634;-72
2021/12/29 05:00:09;;;;;;;;;;;;;;;12.94;63.33;99533.84;4959476;28;6799;-73
2021/12/29 05:02:35;;;;;;;;;;;;;;;12.96;64.44;99538.19;4960188;28;6974;-73
2021/12/29 05:05:11;;;;;;;;;;;;;;;12.96;63.92;99533.06;4953824;28;6807;-72
2021/12/29 05:10:21;;;;;;;;;;;;;;;12.96;64.30;99538.19;4958825;28;8149;-72
2021/12/29 05:12:47;;;;;;;;;;;;;;;12.97;64.01;99536.50;4958371;28;6788;-72
2021/12/29 05:15:12;;;;;;;;;;;;;;;12.97;63.94;99536.50;4957876;28;7261;-72
2021/12/29 05:17:38;;;;;;;;;;;;;;;12.97;63.68;99539.94;4957352;28;6780;-72
2021/12/29 05:20:04;;;;;;;;;;;;;;;12.98;63.28;99543.38;4958204;28;6792;-72
2021/12/29 05:22:30;;;;;;;;;;;;;;;12.98;63.51;99549.38;4975071;28;7168;-72
2021/12/29 05:24:55;;;;;;;;;;;;;;;12.98;63.54;99548.53;4959890;28;6800;-72
2021/12/29 05:27:21;;;;;;;;;;;;;;;12.98;63.05;99548.53;4960643;28;6784;-72
2021/12/29 05:29:47;;;;;;;;;;;;;;;12.95;63.53;99546.75;4956751;28;6803;-72
2021/12/29 05:32:13;;;;;;;;;;;;;;;12.97;64.14;99549.38;4960831;28;7007;-72
2021/12/29 05:34:38;;;;;;;;;;;;;;;12.96;63.27;99547.63;4960461;28;7850;-72
2021/12/29 05:37:04;;;;;;;;;;;;;;;12.97;63.14;99551.94;4958889;28;7825;-72
2021/12/29 05:39:30;;;;;;;;;;;;;;;12.97;63.30;99551.94;4944125;28;6993;-72
2021/12/29 05:41:55;;;;;;;;;;;;;;;12.97;63.40;99557.09;4942734;28;7860;-72
2021/12/29 05:44:21;;;;;;;;;;;;;;;12.98;63.22;99553.69;4960725;28;6800;-72
2021/12/29 05:46:47;;;;;;;;;;;;;;;12.98;63.79;99554.53;4956878;28;7295;-72
2021/12/29 05:49:13;;;;;;;;;;;;;;;13.00;63.30;99559.72;4976232;28;6882;-72
2021/12/29 05:51:39;;;;;;;;;;;;;;;13.01;63.62;99575.22;4961118;28;6879;-72
2021/12/29 05:54:04;;;;;;;;;;;;;;;13.02;62.57;99582.09;4958124;28;6880;-72
2021/12/29 05:56:30;;;;;;;;;;;;;;;13.03;63.24;99585.50;4975014;28;7083;-72
2021/12/29 05:58:59;;;;;;;;;;;;;;;13.03;63.79;99585.50;4957226;28;6780;-72
2021/12/29 06:01:26;;;;;;;;;;;;;;;13.03;62.59;99588.09;4959020;28;6812;-72
2021/12/29 06:03:51;;;;;;;;;;;;;;;13.05;63.21;99591.59;4959204;28;7967;-72
2021/12/29 06:06:17;;;;;;;;;;;;;;;13.05;63.00;99586.44;4957889;28;6875;-72
2021/12/29 06:08:43;;;;;;;;;;;;;;;13.05;63.13;99586.44;4959050;28;7857;-72
2021/12/29 06:11:08;;;;;;;;;;;;;;;13.05;62.81;99579.59;4959217;28;7282;-72
2021/12/29 06:13:34;;;;;;;;;;;;;;;13.05;62.75;99574.44;4959483;28;8897;-72
2021/12/29 06:16:00;;;;;;;;;;;;;;;13.04;62.72;99583.00;4960002;28;6867;-72
2021/12/29 06:18:26;;;;;;;;;;;;;;;13.06;63.45;99580.47;4955328;28;6998;-72
2021/12/29 06:20:51;;;;;;;;;;;;;;;13.05;62.82;99581.31;4960752;28;7161;-72
2021/12/29 06:23:17;;;;;;;;;;;;;;;13.05;62.97;99583.88;4971295;28;7044;-72
2021/12/29 06:25:43;;;;;;;;;;;;;;;13.05;62.29;99587.28;4959595;28;6799;-72
2021/12/29 06:28:09;;;;;;;;;;;;;;;13.04;62.82;99585.56;4958329;28;7199;-72
2021/12/29 06:30:35;;;;;;;;;;;;;;;13.04;63.14;99584.72;4956756;28;6999;-72
2021/12/29 06:33:00;;;;;;;;;;;;;;;13.03;62.97;99598.38;4975690;28;6780;-72
2021/12/29 06:35:26;;;;;;;;;;;;;;;13.03;62.37;99604.41;4923321;28;7324;-72
2021/12/29 06:37:52;;;;;;;;;;;;;;;13.03;62.34;99612.13;4955388;28;7011;-72
2021/12/29 06:40:18;;;;;;;;;;;;;;;13.04;62.74;99610.44;4959201;28;6882;-72
2021/12/29 06:42:43;;;;;;;;;;;;;;;13.04;62.89;99608.72;4959040;28;6831;-72
2021/12/29 06:45:10;;;;;;;;;;;;;;;13.03;63.00;99612.13;4974754;28;7959;-72
2021/12/29 06:47:37;;;;;;;;;;;;;;;13.03;62.73;99600.94;4955798;28;7443;-72
2021/12/29 06:50:06;;;;;;;;;;;;;;;13.04;62.96;99613.00;4959546;28;7923;-72
2021/12/29 06:52:32;;;;;;;;;;;;;;;13.03;62.01;99619.84;4953139;28;7213;-72
2021/12/29 06:54:58;;;;;;;;;;;;;;;13.03;62.32;99618.94;4958799;28;8682;-72
2021/12/29 06:57:24;;;;;;;;;;;;;;;13.03;61.93;99618.94;4939602;28;7817;-72
2021/12/29 06:59:49;;;;;;;;;;;;;;;13.04;61.92;99625.88;4958385;28;6960;-72
2021/12/29 07:02:15;;;;;;;;;;;;;;;13.04;61.61;99629.28;4959089;28;6776;-72
2021/12/29 07:04:42;;;;;;;;;;;;;;;13.03;61.76;99634.38;4955734;28;6875;-72
2021/12/29 07:07:07;;;;;;;;;;;;;;;13.02;62.58;99636.09;4943131;28;6792;-72
2021/12/29 07:09:34;;;;;;;;;;;;;;;13.03;61.60;99642.09;4958105;28;6840;-72
2021/12/29 07:12:00;;;;;;;;;;;;;;;13.02;62.49;99642.94;4957254;28;7845;-73
2021/12/29 07:14:26;;;;;;;;;;;;;;;13.02;61.46;99650.66;4958050;28;7051;-72
2021/12/29 07:16:52;;;;;;;;;;;;;;;13.01;62.08;99649.81;4941011;28;7179;-72
2021/12/29 07:19:20;;;;;;;;;;;;;;;13.01;62.25;99643.78;4960099;28;7013;-72
2021/12/29 07:21:47;;;;;;;;;;;;;;;13.01;62.41;99647.22;4959505;28;6823;-72
2021/12/29 07:24:13;;;;;;;;;;;;;;;13.00;61.86;99650.63;4957134;28;7314;-72
2021/12/29 07:26:39;;;;;;;;;;;;;;;13.01;62.04;99654.06;4958707;28;7018;-72
2021/12/29 07:29:06;;;;;;;;;;;;;;;13.01;61.80;99656.63;4956219;28;8429;-72
2021/12/29 07:31:32;;;;;;;;;;;;;;;13.00;61.75;99660.94;4939216;28;7186;-72
2021/12/29 07:33:58;;;;;;;;;;;;;;;13.03;61.98;99657.53;4958175;28;6824;-72
2021/12/29 07:36:24;;;;;;;;;;;;;;;13.03;61.80;99654.97;4960193;28;6977;-72
2021/12/29 07:38:50;;;;;;;;;;;;;;;13.03;61.40;99675.53;4956863;28;7017;-72
2021/12/29 07:41:16;;;;;;;;;;;;;;;13.03;61.74;99671.28;4959638;28;6852;-72
2021/12/29 07:43:42;;;;;;;;;;;;;;;13.04;61.60;99679.88;4959812;28;6804;-72
2021/12/29 07:46:09;;;;;;;;;;;;;;;13.03;61.70;99675.53;4956280;28;6961;-72
2021/12/29 07:48:34;;;;;;;;;;;;;;;13.05;61.93;99673.91;4957199;28;6848;-72
2021/12/29 07:51:03;;;;;;;;;;;;;;;13.04;60.99;99675.59;4958161;28;7825;-72
2021/12/29 07:53:29;;;;;;;;;;;;;;;13.05;61.68;99672.19;4973900;28;6899;-72
2021/12/29 07:55:55;;;;;;;;;;;;;;;13.06;61.37;99675.66;4957538;28;7848;-72
2021/12/29 07:58:22;;;;;;;;;;;;;;;13.06;61.63;99679.06;4939402;28;7142;-72
2021/12/29 08:00:49;;;;;;;;;;;;;;;13.08;61.04;99685.94;4959307;28;6896;-72
2021/12/29 08:03:16;;;;;;;;;;;;;;;13.08;61.19;99683.38;4958126;28;7113;-72
2021/12/29 08:05:43;;;;;;;;;;;;;;;13.08;60.72;99694.56;4976841;28;6796;-72
2021/12/29 08:08:09;;;;;;;;;;;;;;;13.09;60.86;99696.28;4943969;28;6808;-72
2021/12/29 08:10:37;;;;;;;;;;;;;;;13.13;61.58;99699.81;4960859;28;7118;-72
2021/12/29 08:13:05;;;;;;;;;;;;;;;13.14;61.47;99701.56;4944086;28;6804;-72
2021/12/29 08:15:33;;;;;;;;;;;;;;;13.15;60.58;99698.16;4959747;28;7150;-72
2021/12/29 08:18:02;;;;;;;;;;;;;;;13.17;60.81;99704.22;4962949;28;7026;-72
2021/12/29 08:20:28;;;;;;;;;;;;;;;13.17;61.27;99709.34;4961190;28;6804;-73
2021/12/29 08:22:54;;;;;;;;;;;;;;;13.18;61.46;99706.84;4962320;28;6972;-72
2021/12/29 08:25:20;;;;;;;;;;;;;;;13.19;60.71;99706.00;4958488;28;6804;-72
2021/12/29 08:27:47;;;;;;;;;;;;;;;13.22;61.32;99706.91;4960897;28;7198;-72
2021/12/29 08:30:13;;;;;;;;;;;;;;;13.23;60.97;99704.38;4959782;28;6872;-72
2021/12/29 08:32:39;;;;;;;;;;;;;;;13.25;61.15;99696.72;4944426;28;6803;-72
2021/12/29 08:35:06;;;;;;;;;;;;;;;13.27;61.41;99700.19;4960628;28;6881;-72
2021/12/29 08:37:32;;;;;;;;;;;;;;;13.27;60.57;99695.88;4962520;28;7255;-72
2021/12/29 08:39:58;;;;;;;;;;;;;;;13.29;61.41;99699.41;4958996;28;7019;-72
2021/12/29 08:42:24;;;;;;;;;;;;;;;13.31;61.12;99704.56;4961045;28;6792;-71
2021/12/29 08:44:50;;;;;;;;;;;;;;;13.31;60.39;99715.75;4959152;28;6891;-71
2021/12/29 08:47:16;;;;;;;;;;;;;;;13.33;61.17;99720.94;4943476;28;7496;-72
2021/12/29 08:49:42;;;;;;;;;;;;;;;13.34;61.21;99709.81;4962272;28;7151;-72
2021/12/29 08:52:08;;;;;;;;;;;;;;;13.34;60.70;99712.38;4959179;28;6800;-72
2021/12/29 08:54:35;;;;;;;;;;;;;;;13.34;60.95;99718.38;4960308;28;6820;-72
2021/12/29 08:57:02;;;;;;;;;;;;;;;13.36;60.46;99722.69;4957624;28;7181;-72
2021/12/29 08:59:28;;;;;;;;;;;;;;;13.37;61.63;99717.59;4961391;28;8135;-72
2021/12/29 09:01:55;;;;;;;;;;;;;;;13.38;60.98;99709.03;4960660;28;7109;-72
2021/12/29 09:04:20;;;;;;;;;;;;;;;13.40;60.95;99707.38;4955491;28;8059;-72
2021/12/29 09:06:46;;;;;;;;;;;;;;;13.44;61.26;99706.66;4942564;28;7275;-72
2021/12/29 09:09:12;;;;;;;;;;;;;;;13.46;61.47;99707.56;4959538;28;6807;-72
2021/12/29 09:11:39;;;;;;;;;;;;;;;13.47;60.82;99701.59;4959654;28;6891;-72
2021/12/29 09:14:06;;;;;;;;;;;;;;;13.50;61.57;99699.91;4959520;28;6812;-72
2021/12/29 09:16:32;;;;;;;;;;;;;;;13.52;60.58;99700.81;4957510;28;6808;-71
2021/12/29 09:18:58;;;;;;;;;;;;;;;13.55;60.97;99700.91;4960023;28;8127;-72
2021/12/29 09:21:26;;;;;;;;;;;;;;;13.57;61.33;99700.13;4960024;28;6811;-72
2021/12/29 09:23:51;;;;;;;;;;;;;;;13.59;61.23;99698.47;4959559;28;7299;-72
2021/12/29 09:26:18;;;;;;;;;;;;;;;13.60;60.55;99695.03;4943828;28;6880;-72
2021/12/29 09:28:47;;;;;;;;;;;;;;;13.61;60.43;99693.31;4959793;28;6812;-72
2021/12/29 09:31:14;;;;;;;;;;;;;;;13.61;60.55;99695.91;4943656;28;6832;-72
2021/12/29 09:33:42;;;;;;;;;;;;;;;13.60;60.20;99710.50;4959697;28;7023;-72
2021/12/29 09:36:08;;;;;;;;;;;;;;;13.57;60.40;99710.44;4943210;28;6830;-72
2021/12/29 09:38:36;;;;;;;;;;;;;;;13.59;61.28;99718.16;4960299;28;6788;-72
2021/12/29 09:41:05;;;;;;;;;;;;;;;13.58;60.86;99721.59;4960951;28;6879;-72
2021/12/29 09:43:31;;;;;;;;;;;;;;;13.59;60.60;99718.16;4961109;28;6840;-72
2021/12/29 09:45:56;;;;;;;;;;;;;;;13.58;61.14;99721.59;4955224;28;6788;-72
2021/12/29 09:48:22;;;;;;;;;;;;;;;13.60;60.81;99719.91;4958319;28;6905;-72
2021/12/29 09:50:49;;;;;;;;;;;;;;;13.64;61.07;99726.00;4956851;28;7230;-72
2021/12/29 09:53:16;;;;;;;;;;;;;;;13.64;61.13;99716.59;4958618;28;6822;-72
2021/12/29 09:55:44;;;;;;;;;;;;;;;13.65;60.78;99713.19;4957986;28;6803;-72
2021/12/29 09:58:10;;;;;;;;;;;;;;;13.65;59.84;99714.88;4959374;28;6812;-72
2021/12/29 10:00:41;;;;;;;;;;;;;;;13.64;60.67;99710.56;4957996;28;7138;-72
2021/12/29 10:03:12;;;;;;;;;;;;;;;13.64;60.69;99721.75;4959514;28;6804;-72
2021/12/29 10:05:43;;;;;;;;;;;;;;;13.63;60.52;99719.13;4940913;28;7436;-72
2021/12/29 10:08:12;;;;;;;;;;;;;;;13.60;60.76;99714.75;4976426;28;7101;-71
2021/12/29 10:10:46;;;;;;;;;;;;;;;13.58;60.51;99706.13;4958402;28;6812;-72
2021/12/29 10:13:11;;;;;;;;;;;;;;;13.54;60.45;99712.91;4957456;28;8111;-72
2021/12/29 10:15:50;;;;;;;;;;;;;;;13.51;60.75;99714.53;4961885;28;6875;-72
2021/12/29 10:18:29;;;;;;;;;;;;;;;13.49;60.84;99713.63;4957033;28;6914;-71
2021/12/29 10:21:04;;;;;;;;;;;;;;;13.46;60.35;99694.69;4958331;28;6907;-72
2021/12/29 10:23:37;;;;;;;;;;;;;;;13.47;60.34;99682.69;4942054;28;7066;-72
2021/12/29 10:26:10;;;;;;;;;;;;;;;13.53;60.64;99676.84;4959003;28;7161;-71
2021/12/29 10:28:39;;;;;;;;;;;;;;;13.62;60.60;99682.22;4957189;28;6816;-71
2021/12/29 10:31:13;;;;;;;;;;;;;;;13.73;61.17;99667.00;4956564;28;7232;-72
2021/12/29 10:33:56;;;;;;;;;;;;;;;13.87;61.55;99668.22;4959494;28;8034;-71
2021/12/29 10:36:26;;;;;;;;;;;;;;;14.02;61.36;99677.09;4957598;28;6808;-71
2021/12/29 10:39:42;;;;;;;;;;;;;;;14.23;60.80;99670.66;4956944;28;7889;-72
2021/12/29 10:42:21;;;;;;;;;;;;;;;14.52;60.58;99665.25;4968384;28;6976;-72
2021/12/29 10:44:59;;;;;;;;;;;;;;;14.72;60.41;99663.06;4956710;28;6815;-72
2021/12/29 10:47:34;;;;;;;;;;;;;;;14.90;59.18;99669.47;4956079;28;6816;-72
2021/12/29 10:50:09;;;;;;;;;;;;;;;15.00;59.10;99676.53;4958174;28;7428;-72
2021/12/29 10:52:43;;;;;;;;;;;;;;;15.03;58.33;99686.91;4939785;28;6820;-72
2021/12/29 10:55:21;;;;;;;;;;;;;;;15.01;58.30;99678.25;4958936;28;6895;-72
2021/12/29 10:58:14;;;;;;;;;;;;;;;14.95;58.20;99670.41;4973231;28;8539;-72
2021/12/29 11:00:45;;;;;;;;;;;;;;;14.90;58.28;99674.63;4940701;28;6988;-72
2021/12/29 11:03:17;;;;;;;;;;;;;;;14.86;57.83;99679.69;4973828;28;6804;-72
2021/12/29 11:05:48;;;;;;;;;;;;;;;14.81;58.57;99675.28;4958453;28;7223;-72
2021/12/29 11:08:15;;;;;;;;;;;;;;;14.79;57.74;99679.56;4972178;28;7057;-72
2021/12/29 11:10:44;;;;;;;;;;;;;;;14.79;58.59;99672.72;4958113;28;6892;-72
2021/12/29 11:13:12;;;;;;;;;;;;;;;14.82;58.27;99656.41;4934338;28;7248;-72
2021/12/29 11:15:42;;;;;;;;;;;;;;;14.90;58.00;99664.31;4956844;28;6904;-72
2021/12/29 11:18:12;;;;;;;;;;;;;;;14.97;57.78;99679.06;4960070;28;6978;-72
2021/12/29 11:20:39;;;;;;;;;;;;;;;14.98;57.36;99673.06;4957584;28;6896;-72
2021/12/29 11:23:16;;;;;;;;;;;;;;;14.93;57.87;99680.72;4960293;28;6900;-72
2021/12/29 11:25:45;;;;;;;;;;;;;;;14.88;57.68;99684.06;4957749;28;6987;-72
2021/12/29 11:28:43;;;;;;;;;;;;;;;14.83;57.13;99677.06;4957197;28;6800;-72
2021/12/29 11:31:11;;;;;;;;;;;;;;;14.79;57.78;99667.56;4905533;28;6899;-72
2021/12/29 11:33:37;;;;;;;;;;;;;;;14.78;58.04;99654.63;4948712;28;6827;-71
2021/12/29 11:36:04;;;;;;;;;;;;;;;14.76;57.68;99657.16;4968849;28;6823;-71
2021/12/29 11:38:31;;;;;;;;;;;;;;;14.74;58.36;99669.16;4957612;28;7332;-71
2021/12/29 11:41:01;;;;;;;;;;;;;;;14.71;58.18;99684.56;4958461;28;6875;-72
2021/12/29 11:43:27;;;;;;;;;;;;;;;14.70;57.38;99680.25;4956623;28;6815;-72
2021/12/29 11:45:57;;;;;;;;;;;;;;;14.67;57.46;99662.97;4956645;28;7129;-72
2021/12/29 11:48:24;;;;;;;;;;;;;;;14.65;57.65;99664.66;4957930;28;6804;-72
2021/12/29 11:50:57;;;;;;;;;;;;;;;14.64;58.02;99651.75;4959329;28;6836;-72
2021/12/29 11:53:57;;;;;;;;;;;;;;;14.64;58.55;99652.63;4960530;28;6981;-71
2021/12/29 11:56:23;;;;;;;;;;;;;;;14.65;57.95;99650.91;4960624;28;6831;-72
2021/12/29 11:58:50;;;;;;;;;;;;;;;14.67;57.99;99646.63;4957493;28;7322;-71
2021/12/29 12:01:23;;;;;;;;;;;;;;;14.70;57.63;99633.81;4974043;28;7038;-71
2021/12/29 12:03:56;;;;;;;;;;;;;;;14.72;57.88;99642.44;4962025;28;6812;-71
2021/12/29 12:06:27;;;;;;;;;;;;;;;14.74;58.23;99638.22;4959505;28;6883;-71
2021/12/29 12:09:15;;;;;;;;;;;;;;;14.73;57.86;99636.47;4963011;28;7624;-71
2021/12/29 12:11:56;;;;;;;;;;;;;;;14.70;58.54;99616.59;4960166;28;6816;-71
2021/12/29 12:14:25;;;;;;;;;;;;;;;14.69;57.39;99619.19;4976207;28;7170;-72
2021/12/29 12:16:57;;;;;;;;;;;;;;;14.66;58.26;99612.25;4959388;28;6994;-72
2021/12/29 12:19:25;;;;;;;;;;;;;;;14.65;58.46;99627.69;4959360;28;6816;-71
2021/12/29 12:22:13;;;;;;;;;;;;;;;14.64;58.24;99637.16;4962466;28;6803;-71
2021/12/29 12:25:03;;;;;;;;;;;;;;;14.65;58.70;99656.06;4961263;28;6796;-72
2021/12/29 12:27:45;;;;;;;;;;;;;;;14.66;58.27;99650.94;4960023;28;6998;-72
2021/12/29 12:30:16;;;;;;;;;;;;;;;14.66;58.39;99638.03;4945115;28;6977;-72
2021/12/29 12:32:55;;;;;;;;;;;;;;;14.67;58.13;99638.88;4942942;28;7015;-72
2021/12/29 12:35:34;;;;;;;;;;;;;;;14.67;58.01;99644.94;4960145;28;6808;-72
2021/12/29 12:38:21;;;;;;;;;;;;;;;14.68;58.87;99622.59;4953907;28;7212;-71
2021/12/29 12:41:07;;;;;;;;;;;;;;;14.71;58.59;99602.03;4959052;28;6882;-71
2021/12/29 12:43:53;;;;;;;;;;;;;;;14.73;57.81;99600.38;4959766;28;6812;-71
2021/12/29 12:46:44;;;;;;;;;;;;;;;14.71;58.11;99602.03;4958498;28;7225;-71
2021/12/29 12:49:30;;;;;;;;;;;;;;;14.69;58.64;99601.13;4944175;28;7168;-71
2021/12/29 12:52:12;;;;;;;;;;;;;;;14.67;58.64;99601.09;4960100;28;7321;-71
2021/12/29 12:54:47;;;;;;;;;;;;;;;14.63;58.93;99612.19;4959178;28;6836;-71
2021/12/29 12:57:24;;;;;;;;;;;;;;;14.58;58.48;99604.38;4958431;28;7574;-71
2021/12/29 12:59:53;;;;;;;;;;;;;;;14.54;58.56;99597.41;4959529;28;7056;-71
2021/12/29 13:02:22;;;;;;;;;;;;;;;14.53;58.88;99602.53;4958796;28;6867;-71
2021/12/29 13:05:15;;;;;;;;;;;;;;;14.50;59.01;99613.66;4941673;28;6809;-71
2021/12/29 13:07:51;;;;;;;;;;;;;;;14.48;58.91;99614.47;4955484;28;7025;-71
2021/12/29 13:10:28;;;;;;;;;;;;;;;14.48;58.81;99599.84;4943004;28;7977;-71
2021/12/29 13:12:59;;;;;;;;;;;;;;;14.51;58.45;99596.47;4960400;28;7019;-71